Klawock Airport Klawock US
ICAO: PAKW
IATA:
Category: Medium
Scheduled Services:

Elevation: 80 ft
TransAlt. 18000 ft.

Airport Communications:
ASOS:135.45
ANCHORAGE CNTR:118.5
CTAF:120.9
KETCHIKAN RDO:122.25

PAKW Zoom In..

Runways:

(A) RW 02 length 5000 ft width 100 ft
---- / hdg 19

(B) RW 20 length 5000 ft width 100 ft
---- / hdg 199

Location; PAKW
Day. 20 / Time. 08.53 Zulu
* Altimeter: 29.90
* Temperature: 03° c. 37.4°f.
* Wind from: 000° Speed 00 kn.
Dewpoint: 03° c.
Visibility: 10 Statute Miles.
Clouds: Few 1500 ft.
Clouds: Scattered 3900 ft.
Clouds: Broken 5000 ft.
Conditions: Light Rain.

PAKW 200853Z AUTO 00000KT 10SM -RA FEW015 SCT039 BKN050 03/03 A2990 RMK AO2 RAB43 SLP127 P0001 60003 T00280028 401000028 51009 TSNO


Wind - Calm.

  YouTube Music Video
 
jpsmedia.com for Web Design  worldairports.se 2018   terms of use